createdAt,value
2019-06-07T00:02:08.290Z,97.30
2019-06-07T00:06:44.120Z,97.10
2019-06-07T00:11:20.653Z,97.10
2019-06-07T00:15:56.880Z,97.40
2019-06-07T00:20:32.692Z,97.30
2019-06-07T00:25:12.183Z,97.50
2019-06-07T00:29:46.176Z,97.40
2019-06-07T00:34:23.133Z,98.40
2019-06-07T00:38:59.464Z,98.40
2019-06-07T00:43:35.296Z,98.80
2019-06-07T00:48:19.664Z,99.10
2019-06-07T00:57:26.120Z,99.00
2019-06-07T01:02:02.066Z,99.00
2019-06-07T01:06:37.948Z,99.90
2019-06-07T01:11:13.721Z,99.90
2019-06-07T01:15:50.072Z,99.90
2019-06-07T01:20:26.807Z,99.90
2019-06-07T01:25:02.925Z,99.90
2019-06-07T01:29:38.716Z,99.90
2019-06-07T01:34:14.571Z,99.90
2019-06-07T01:38:50.400Z,99.90
2019-06-07T01:43:27.071Z,99.90
2019-06-07T01:48:03.812Z,99.90
2019-06-07T01:52:39.613Z,99.90
2019-06-07T01:57:36.704Z,99.90
2019-06-07T02:01:54.014Z,99.90
2019-06-07T02:06:32.219Z,99.90
2019-06-07T02:11:07.280Z,99.90
2019-06-07T02:15:43.068Z,99.90
2019-06-07T02:20:20.342Z,99.90
2019-06-07T02:25:34.634Z,99.90
2019-06-07T02:29:34.358Z,99.90
2019-06-07T02:34:10.594Z,99.90
2019-06-07T02:38:46.406Z,99.90
2019-06-07T02:43:22.196Z,99.90
2019-06-07T02:47:58.064Z,99.90
2019-06-07T02:52:39.895Z,99.90
2019-06-07T02:57:11.407Z,99.90
2019-06-07T03:01:47.612Z,99.90
2019-06-07T03:06:27.140Z,99.90
2019-06-07T03:11:03.080Z,99.90
2019-06-07T03:15:49.598Z,99.90
2019-06-07T03:20:19.410Z,99.90
2019-06-07T03:24:56.685Z,99.90
2019-06-07T03:29:34.414Z,99.90
2019-06-07T03:34:10.227Z,99.90
2019-06-07T03:38:46.003Z,99.90
2019-06-07T03:43:21.801Z,99.90
2019-06-07T03:47:57.578Z,99.90
2019-06-07T03:52:37.100Z,99.90
2019-06-07T03:57:10.850Z,99.90
2019-06-07T04:01:46.651Z,99.90
2019-06-07T04:06:22.548Z,99.90
2019-06-07T04:11:00.735Z,99.90
2019-06-07T04:15:40.843Z,99.90
2019-06-07T04:20:14.834Z,99.90
2019-06-07T04:24:50.611Z,99.90
2019-06-07T04:29:54.591Z,99.90
2019-06-07T04:34:03.907Z,99.90
2019-06-07T04:38:42.623Z,99.90
2019-06-07T04:43:18.865Z,99.90
2019-06-07T04:47:56.417Z,99.90
2019-06-07T04:52:35.844Z,99.90
2019-06-07T04:57:10.204Z,99.90
2019-06-07T05:01:45.984Z,99.90
2019-06-07T05:06:21.788Z,99.90
2019-06-07T05:10:57.593Z,99.90
2019-06-07T05:15:34.621Z,99.90
2019-06-07T05:20:11.499Z,99.90
2019-06-07T05:24:47.362Z,99.90
2019-06-07T05:29:23.175Z,99.90
2019-06-07T05:33:59.044Z,99.90
2019-06-07T05:38:36.083Z,99.90
2019-06-07T05:43:26.127Z,99.90
2019-06-07T05:48:02.731Z,99.90
2019-06-07T05:52:42.448Z,99.90
2019-06-07T05:57:16.312Z,99.90
2019-06-07T06:02:02.095Z,99.90
2019-06-07T06:06:29.609Z,99.90
2019-06-07T06:11:05.469Z,99.90
2019-06-07T06:15:54.400Z,99.90
2019-06-07T06:20:19.364Z,99.90
2019-06-07T06:25:30.024Z,99.90
2019-06-07T06:29:32.968Z,99.90
2019-06-07T06:34:08.789Z,99.90
2019-06-07T06:38:47.176Z,99.90
2019-06-07T06:43:22.069Z,99.90
2019-06-07T06:47:57.871Z,99.90
2019-06-07T06:52:33.653Z,99.90
2019-06-07T06:57:19.554Z,99.90
2019-06-07T07:01:49.444Z,99.90
2019-06-07T07:06:26.914Z,99.90
2019-06-07T07:11:02.912Z,99.90
2019-06-07T07:15:38.821Z,99.90
2019-06-07T07:20:14.961Z,99.90
2019-06-07T07:24:53.400Z,99.90
2019-06-07T07:29:28.270Z,99.90
2019-06-07T07:38:41.551Z,99.80
2019-06-07T07:43:17.354Z,99.90
2019-06-07T07:48:08.174Z,99.50
2019-06-07T07:52:30.645Z,99.40
2019-06-07T07:57:06.801Z,99.70
2019-06-07T08:01:42.610Z,99.00
2019-06-07T08:06:18.386Z,98.40
2019-06-07T08:10:58.067Z,98.60
2019-06-07T08:15:31.662Z,96.90
2019-06-07T08:20:07.707Z,96.20
2019-06-07T08:24:43.517Z,94.80
